createdAt,value
2023-05-11T00:00:37.283Z,101447.00
2023-05-11T00:03:04.007Z,101445.09
2023-05-11T00:05:30.716Z,101443.47
2023-05-11T00:07:57.396Z,101438.03
2023-05-11T00:10:23.981Z,101444.28
2023-05-11T00:12:50.594Z,101449.19
2023-05-11T00:15:17.108Z,101435.56
2023-05-11T00:17:43.719Z,101440.75
2023-05-11T00:20:10.550Z,101441.84
2023-05-11T00:22:37.150Z,101449.19
2023-05-11T00:25:04.511Z,101436.41
2023-05-11T00:27:31.053Z,101434.19
2023-05-11T00:29:57.996Z,101431.19
2023-05-11T00:32:24.572Z,101429.84
2023-05-11T00:34:51.140Z,101433.38
2023-05-11T00:37:17.641Z,101427.13
2023-05-11T00:39:44.280Z,101436.94
2023-05-11T00:42:11.355Z,101430.38
2023-05-11T00:44:37.915Z,101437.22
2023-05-11T00:47:04.710Z,101443.47
2023-05-11T00:49:31.531Z,101442.66
2023-05-11T00:51:58.175Z,101440.19
2023-05-11T00:54:25.295Z,101438.56
2023-05-11T00:56:51.861Z,101433.09
2023-05-11T00:59:18.966Z,101439.38
2023-05-11T01:01:45.670Z,101440.19
2023-05-11T01:04:12.819Z,101436.94
2023-05-11T01:06:58.137Z,101439.66
2023-05-11T01:09:32.774Z,101431.47
2023-05-11T01:12:16.373Z,101435.00
2023-05-11T01:15:00.825Z,101431.72
2023-05-11T01:17:53.036Z,101431.72
2023-05-11T01:20:27.782Z,101434.44
2023-05-11T01:22:54.253Z,101431.72
2023-05-11T01:25:29.914Z,101437.47
2023-05-11T01:28:02.383Z,101432.00
2023-05-11T01:30:41.052Z,101435.53
2023-05-11T01:33:12.110Z,101432.00
2023-05-11T01:35:45.979Z,101428.72
2023-05-11T01:38:14.714Z,101424.91
2023-05-11T01:40:43.132Z,101422.19
2023-05-11T01:43:18.789Z,101423.28
2023-05-11T01:45:50.459Z,101427.63
2023-05-11T01:48:22.821Z,101428.72
2023-05-11T01:50:51.298Z,101423.28
2023-05-11T01:53:19.799Z,101430.63
2023-05-11T01:55:48.280Z,101430.63
2023-05-11T01:58:17.141Z,101435.25
2023-05-11T02:00:45.153Z,101430.63
2023-05-11T02:03:12.793Z,101434.97
2023-05-11T02:05:40.898Z,101436.06
2023-05-11T02:08:09.151Z,101433.63
2023-05-11T02:10:36.953Z,101434.44
2023-05-11T02:13:05.305Z,101445.59
2023-05-11T02:15:34.229Z,101434.44
2023-05-11T02:18:02.848Z,101434.16
2023-05-11T02:20:30.693Z,101429.53
2023-05-11T02:22:58.696Z,101438.53
2023-05-11T02:25:25.727Z,101434.16
2023-05-11T02:27:52.318Z,101439.84
2023-05-11T02:30:19.123Z,101441.53
2023-05-11T02:32:53.040Z,101446.16
2023-05-11T02:35:26.366Z,101439.63
2023-05-11T02:37:57.960Z,101434.41
2023-05-11T02:40:40.605Z,101440.72
2023-05-11T02:43:10.427Z,101442.59
2023-05-11T02:45:38.894Z,101436.59
2023-05-11T02:48:10.287Z,101439.84
2023-05-11T02:50:39.872Z,101444.50
2023-05-11T02:53:16.846Z,101440.72
2023-05-11T02:55:43.714Z,101442.59
2023-05-11T02:58:10.793Z,101451.84
2023-05-11T03:00:39.696Z,101450.22
2023-05-11T03:03:06.806Z,101444.78
2023-05-11T03:05:33.429Z,101442.88
2023-05-11T03:08:00.494Z,101442.34
2023-05-11T03:10:28.335Z,101456.75
2023-05-11T03:12:58.833Z,101445.06
2023-05-11T03:15:25.412Z,101442.34
2023-05-11T03:17:53.228Z,101443.16
2023-05-11T03:20:22.309Z,101446.69
2023-05-11T03:22:49.730Z,101452.38
2023-05-11T03:25:17.533Z,101446.13
2023-05-11T03:27:46.426Z,101449.66
2023-05-11T03:30:14.446Z,101435.22
2023-05-11T03:32:41.097Z,101438.75
2023-05-11T03:35:08.591Z,101437.94
2023-05-11T03:37:37.744Z,101436.03
2023-05-11T03:40:05.777Z,101434.41
2023-05-11T03:42:34.112Z,101439.31
2023-05-11T03:45:02.806Z,101433.59
2023-05-11T03:47:31.422Z,101433.59
2023-05-11T03:49:58.828Z,101432.78
2023-05-11T03:52:26.261Z,101433.88
2023-05-11T03:54:53.015Z,101429.50
2023-05-11T03:57:19.526Z,101429.50
2023-05-11T03:59:46.201Z,101426.25
2023-05-11T04:02:13.034Z,101428.44
2023-05-11T04:04:39.592Z,101430.59
2023-05-11T04:07:06.275Z,101424.59
2023-05-11T04:09:32.795Z,101430.59
2023-05-11T04:11:59.556Z,101429.50
2023-05-11T04:14:26.072Z,101424.59
2023-05-11T04:16:52.612Z,101430.59
2023-05-11T04:19:19.509Z,101425.44
2023-05-11T04:21:46.813Z,101428.16
2023-05-11T04:24:13.329Z,101431.94
2023-05-11T04:26:39.826Z,101432.22
2023-05-11T04:29:06.327Z,101431.13
2023-05-11T04:31:32.862Z,101436.56
2023-05-11T04:33:59.430Z,101433.84
2023-05-11T04:36:26.016Z,101435.75
2023-05-11T04:38:53.241Z,101438.19
2023-05-11T04:41:20.073Z,101442.81
2023-05-11T04:43:46.593Z,101449.34
2023-05-11T04:46:13.228Z,101450.47
2023-05-11T04:48:39.867Z,101450.47
2023-05-11T04:51:06.906Z,101442.53
2023-05-11T04:53:33.967Z,101457.81
2023-05-11T04:56:00.580Z,101449.34
2023-05-11T04:58:27.112Z,101468.41
2023-05-11T05:00:53.660Z,101461.34
2023-05-11T05:03:20.225Z,101458.06
2023-05-11T05:05:47.092Z,101468.94
2023-05-11T05:08:14.265Z,101464.06
2023-05-11T05:10:40.769Z,101469.75
2023-05-11T05:13:07.267Z,101475.19
2023-05-11T05:15:33.799Z,101470.03
2023-05-11T05:18:00.370Z,101474.38
2023-05-11T05:20:26.921Z,101475.47
2023-05-11T05:22:55.183Z,101480.09
2023-05-11T05:25:22.347Z,101491.81
2023-05-11T05:27:49.113Z,101484.72
2023-05-11T05:30:15.817Z,101489.38
2023-05-11T05:32:42.411Z,101484.72
2023-05-11T05:35:09.346Z,101491.25
2023-05-11T05:37:37.546Z,101499.97
2023-05-11T05:40:05.250Z,101488.28
2023-05-11T05:42:31.718Z,101501.06
2023-05-11T05:44:58.257Z,101501.88
2023-05-11T05:47:24.787Z,101505.69
2023-05-11T05:49:51.330Z,101513.84
2023-05-11T05:52:17.885Z,101514.41
2023-05-11T05:54:44.707Z,101513.84
2023-05-11T05:57:12.334Z,101520.94
2023-05-11T05:59:40.381Z,101522.03
2023-05-11T06:02:07.085Z,101518.72
2023-05-11T06:04:33.629Z,101534.78
2023-05-11T06:07:00.748Z,101528.53
2023-05-11T06:09:27.254Z,101524.75
2023-05-11T06:11:54.165Z,101527.47
2023-05-11T06:14:22.416Z,101525.56
2023-05-11T06:16:49.390Z,101520.13
2023-05-11T06:19:16.567Z,101528.53
2023-05-11T06:21:45.190Z,101520.13
2023-05-11T06:24:11.864Z,101513.84
2023-05-11T06:26:38.496Z,101521.19
2023-05-11T06:29:05.006Z,101532.63
2023-05-11T06:31:31.717Z,101529.34
2023-05-11T06:33:58.309Z,101536.44
2023-05-11T06:36:25.277Z,101530.19
2023-05-11T06:38:51.854Z,101535.63
2023-05-11T06:41:18.647Z,101542.94
2023-05-11T06:43:45.190Z,101532.91
2023-05-11T06:46:16.289Z,101550.06
2023-05-11T06:48:42.894Z,101541.88
2023-05-11T06:51:12.696Z,101546.75
2023-05-11T06:53:39.435Z,101529.34
2023-05-11T06:56:06.507Z,101541.88
2023-05-11T06:58:33.053Z,101536.44
2023-05-11T07:00:59.575Z,101542.69
2023-05-11T07:03:26.491Z,101538.34
2023-05-11T07:05:53.013Z,101539.41
2023-05-11T07:08:19.532Z,101548.16
2023-05-11T07:10:46.100Z,101543.78
2023-05-11T07:13:12.669Z,101541.63
2023-05-11T07:15:39.273Z,101547.34
2023-05-11T07:18:05.871Z,101543.53
2023-05-11T07:20:32.482Z,101547.63
2023-05-11T07:22:59.391Z,101556.03
2023-05-11T07:25:25.985Z,101545.44
2023-05-11T07:27:52.677Z,101547.06
2023-05-11T07:30:19.560Z,101539.16
2023-05-11T07:32:46.286Z,101544.59
2023-05-11T07:35:13.102Z,101545.44
2023-05-11T07:37:39.602Z,101553.59
2023-05-11T07:40:07.058Z,101549.78
2023-05-11T07:42:33.572Z,101550.34
2023-05-11T07:45:00.097Z,101554.13
2023-05-11T07:47:27.038Z,101553.06
2023-05-11T07:49:53.571Z,101556.03
2023-05-11T07:52:20.134Z,101545.72
2023-05-11T07:54:46.598Z,101554.97
2023-05-11T07:57:13.973Z,101551.16
2023-05-11T07:59:41.097Z,101562.06
2023-05-11T08:02:11.440Z,101549.25
2023-05-11T08:04:39.567Z,101551.69
2023-05-11T08:07:06.090Z,101550.06
2023-05-11T08:09:32.609Z,101544.63
2023-05-11T08:12:01.614Z,101560.97
2023-05-11T08:14:28.442Z,101551.97
2023-05-11T08:16:55.062Z,101559.88
2023-05-11T08:19:21.577Z,101563.69
2023-05-11T08:21:48.268Z,101565.59
2023-05-11T08:24:14.839Z,101570.50
2023-05-11T08:26:41.338Z,101556.09
2023-05-11T08:29:07.865Z,101577.88
2023-05-11T08:31:34.515Z,101565.88
2023-05-11T08:34:01.218Z,101575.69
2023-05-11T08:36:27.923Z,101568.59
2023-05-11T08:38:59.046Z,101574.88
2023-05-11T08:41:25.952Z,101568.31
2023-05-11T08:43:55.032Z,101564.78
2023-05-11T08:46:23.826Z,101558.53
2023-05-11T08:48:50.708Z,101565.59
2023-05-11T08:51:17.349Z,101559.09
2023-05-11T08:53:44.046Z,101565.34
2023-05-11T08:56:11.898Z,101563.44
2023-05-11T08:58:39.935Z,101559.91
2023-05-11T09:01:07.219Z,101561.81
2023-05-11T09:03:36.718Z,101563.16
2023-05-11T09:06:07.217Z,101556.09
2023-05-11T09:08:37.374Z,101558.81
2023-05-11T09:11:05.084Z,101563.16
2023-05-11T09:13:32.070Z,101563.16
2023-05-11T09:15:59.264Z,101560.44
2023-05-11T09:18:27.138Z,101575.72
2023-05-11T09:20:54.064Z,101570.28
2023-05-11T09:23:29.744Z,101570.28
2023-05-11T09:25:56.352Z,101551.75
2023-05-11T09:28:27.205Z,101562.66
2023-05-11T09:30:54.161Z,101559.94
2023-05-11T09:33:25.849Z,101558.84
2023-05-11T09:35:53.193Z,101562.13
2023-05-11T09:38:20.791Z,101561.31
2023-05-11T09:40:55.594Z,101567.81
2023-05-11T09:43:26.320Z,101558.59
2023-05-11T09:45:55.540Z,101565.66
2023-05-11T09:48:22.230Z,101564.84
2023-05-11T09:50:50.533Z,101559.13
2023-05-11T09:53:17.624Z,101560.78
2023-05-11T09:55:56.704Z,101560.50
2023-05-11T09:58:23.981Z,101559.69
2023-05-11T10:00:54.050Z,101560.22
2023-05-11T10:03:21.021Z,101562.13
2023-05-11T10:05:59.185Z,101563.78
2023-05-11T10:08:30.487Z,101561.31
2023-05-11T10:10:57.899Z,101551.25
2023-05-11T10:13:24.883Z,101570.88
2023-05-11T10:15:52.315Z,101573.59
2023-05-11T10:18:20.432Z,101568.16
2023-05-11T10:20:47.858Z,101565.44
2023-05-11T10:23:15.119Z,101568.97
2023-05-11T10:25:42.571Z,101569.22
2023-05-11T10:28:10.530Z,101568.97
2023-05-11T10:30:37.413Z,101565.97
2023-05-11T10:33:05.947Z,101561.34
2023-05-11T10:35:32.918Z,101557.78
2023-05-11T10:38:01.067Z,101560.53
2023-05-11T10:40:28.081Z,101570.34
2023-05-11T10:43:06.939Z,101564.06
2023-05-11T10:46:05.499Z,101563.00
2023-05-11T10:48:40.830Z,101567.34
2023-05-11T10:51:58.355Z,101575.53
2023-05-11T10:54:34.400Z,101568.97
2023-05-11T10:57:19.434Z,101572.78
2023-05-11T11:00:10.777Z,101580.97
2023-05-11T11:02:38.531Z,101582.59
2023-05-11T11:05:09.053Z,101597.88
2023-05-11T11:07:53.941Z,101596.78
2023-05-11T11:10:35.807Z,101605.50
2023-05-11T11:13:04.220Z,101610.13
2023-05-11T11:15:56.056Z,101596.50
2023-05-11T11:18:23.796Z,101591.06
2023-05-11T11:20:52.960Z,101594.59
2023-05-11T11:23:49.887Z,101587.22
2023-05-11T11:26:19.309Z,101587.22
2023-05-11T11:28:54.892Z,101579.06
2023-05-11T11:31:28.025Z,101587.00
2023-05-11T11:33:58.882Z,101585.38
2023-05-11T11:37:10.602Z,101585.09
2023-05-11T11:39:43.168Z,101588.63
2023-05-11T11:42:32.519Z,101595.97
2023-05-11T11:45:31.557Z,101587.81
2023-05-11T11:48:15.014Z,101600.09
2023-05-11T11:50:43.966Z,101586.72
2023-05-11T11:53:12.073Z,101596.53
2023-05-11T11:55:51.981Z,101589.44
2023-05-11T11:58:58.334Z,101610.97
2023-05-11T12:01:29.581Z,101596.25
2023-05-11T12:04:05.238Z,101600.09
2023-05-11T12:06:40.299Z,101599.25
2023-05-11T12:09:07.687Z,101599.81
2023-05-11T12:11:34.914Z,101613.19
2023-05-11T12:14:02.884Z,101602.53
2023-05-11T12:16:30.288Z,101601.72
2023-05-11T12:19:01.466Z,101592.44
2023-05-11T12:21:30.061Z,101593.25
2023-05-11T12:23:58.092Z,101583.22
2023-05-11T12:26:26.458Z,101587.56
2023-05-11T12:29:07.949Z,101588.38
2023-05-11T12:31:38.995Z,101588.38
2023-05-11T12:34:05.783Z,101582.94
2023-05-11T12:36:34.308Z,101583.75
2023-05-11T12:39:00.979Z,101583.47
2023-05-11T12:41:27.478Z,101581.59
2023-05-11T12:43:55.880Z,101576.97
2023-05-11T12:46:23.397Z,101578.03
2023-05-11T12:48:51.501Z,101572.56
2023-05-11T12:51:46.182Z,101582.41
2023-05-11T12:54:24.161Z,101576.16
2023-05-11T12:56:50.705Z,101580.50
2023-05-11T12:59:35.186Z,101577.50
2023-05-11T13:02:09.221Z,101581.03
2023-05-11T13:04:36.342Z,101576.69
2023-05-11T13:07:03.397Z,101576.44
2023-05-11T13:09:29.941Z,101565.53
2023-05-11T13:12:20.897Z,101574.53
2023-05-11T13:15:04.191Z,101582.69
2023-05-11T13:17:35.665Z,101574.53
2023-05-11T13:20:20.618Z,101587.88
2023-05-11T13:22:49.136Z,101579.44
2023-05-11T13:25:17.741Z,101594.69
2023-05-11T13:27:44.699Z,101576.97
2023-05-11T13:30:11.641Z,101579.69
2023-05-11T13:32:38.967Z,101587.06
2023-05-11T13:35:06.821Z,101590.59
2023-05-11T13:37:33.397Z,101597.72
2023-05-11T13:40:00.769Z,101593.88
2023-05-11T13:42:28.583Z,101583.28
2023-05-11T13:44:55.330Z,101589.53
2023-05-11T13:47:22.198Z,101580.53
2023-05-11T13:49:49.004Z,101587.63
2023-05-11T13:52:15.870Z,101583.00
2023-05-11T13:54:42.442Z,101579.16
2023-05-11T13:57:09.117Z,101587.91
2023-05-11T13:59:35.686Z,101581.91
2023-05-11T14:02:02.646Z,101575.91
2023-05-11T14:04:29.392Z,101584.09
2023-05-11T14:06:56.153Z,101575.63
2023-05-11T14:09:23.441Z,101589.00
2023-05-11T14:11:50.635Z,101584.38
2023-05-11T14:14:17.872Z,101586.81
2023-05-11T14:16:44.765Z,101580.56
2023-05-11T14:19:11.542Z,101580.34
2023-05-11T14:21:38.189Z,101574.03
2023-05-11T14:24:12.043Z,101581.97
2023-05-11T14:26:39.897Z,101584.69
2023-05-11T14:29:07.013Z,101591.78
2023-05-11T14:31:35.376Z,101588.22
2023-05-11T14:34:03.573Z,101592.59
2023-05-11T14:36:31.744Z,101586.06
2023-05-11T14:38:58.309Z,101586.88
2023-05-11T14:41:25.641Z,101583.06
2023-05-11T14:43:52.297Z,101582.25
2023-05-11T14:46:19.542Z,101595.59
2023-05-11T14:48:46.399Z,101597.50
2023-05-11T14:51:13.078Z,101590.97
2023-05-11T14:53:39.686Z,101584.44
2023-05-11T14:56:06.877Z,101591.53
2023-05-11T14:58:33.418Z,101593.44
2023-05-11T15:00:59.993Z,101596.97
2023-05-11T15:03:26.753Z,101589.63
2023-05-11T15:05:53.315Z,101589.09
2023-05-11T15:08:29.531Z,101595.63
2023-05-11T15:10:56.542Z,101587.44
2023-05-11T15:13:23.890Z,101592.63
2023-05-11T15:15:51.467Z,101587.16
2023-05-11T15:18:18.563Z,101587.97
2023-05-11T15:20:46.499Z,101582.28
2023-05-11T15:23:17.067Z,101589.66
2023-05-11T15:25:44.784Z,101591.28
2023-05-11T15:28:11.799Z,101582.00
2023-05-11T15:30:38.585Z,101592.09
2023-05-11T15:33:05.406Z,101587.72
2023-05-11T15:35:34.728Z,101584.72
2023-05-11T15:38:01.279Z,101601.66
2023-05-11T15:40:29.313Z,101592.63
2023-05-11T15:42:57.942Z,101595.09
2023-05-11T15:45:26.043Z,101585.00
2023-05-11T15:47:52.744Z,101605.72
2023-05-11T15:50:19.692Z,101598.63
2023-05-11T15:52:46.375Z,101596.72
2023-05-11T15:55:12.876Z,101590.19
2023-05-11T15:57:39.472Z,101590.19
2023-05-11T16:00:06.733Z,101580.13
2023-05-11T16:02:33.324Z,101585.56
2023-05-11T16:04:59.876Z,101589.13
2023-05-11T16:07:27.233Z,101582.56
2023-05-11T16:09:53.929Z,101580.94
2023-05-11T16:12:20.414Z,101579.84
2023-05-11T16:14:46.944Z,101586.09
2023-05-11T16:17:13.731Z,101584.19
2023-05-11T16:19:40.701Z,101584.19
2023-05-11T16:22:07.489Z,101589.41
2023-05-11T16:24:34.479Z,101592.94
2023-05-11T16:27:01.410Z,101586.66
2023-05-11T16:29:27.923Z,101585.56
2023-05-11T16:31:54.572Z,101580.13
2023-05-11T16:34:21.286Z,101583.66
2023-05-11T16:36:49.586Z,101589.94
2023-05-11T16:39:16.102Z,101585.28
2023-05-11T16:41:42.595Z,101592.13
2023-05-11T16:44:09.110Z,101592.94
2023-05-11T16:46:35.743Z,101595.94
2023-05-11T16:49:02.451Z,101582.03
2023-05-11T16:51:29.329Z,101589.09
2023-05-11T16:53:57.278Z,101585.56
2023-05-11T16:56:23.982Z,101590.78
2023-05-11T16:58:50.519Z,101591.84
2023-05-11T17:01:17.211Z,101591.59
2023-05-11T17:03:43.797Z,101597.84
2023-05-11T17:06:13.580Z,101590.50
2023-05-11T17:08:40.674Z,101592.94
2023-05-11T17:11:07.452Z,101598.66
2023-05-11T17:13:34.147Z,101598.66
2023-05-11T17:16:00.717Z,101598.38
2023-05-11T17:18:27.616Z,101606.56
2023-05-11T17:20:55.221Z,101606.56
2023-05-11T17:23:22.877Z,101610.38
2023-05-11T17:25:49.488Z,101603.84
2023-05-11T17:28:16.587Z,101617.47
2023-05-11T17:30:48.635Z,101601.97
2023-05-11T17:33:16.343Z,101614.75
2023-05-11T17:35:43.564Z,101616.41
2023-05-11T17:38:10.238Z,101609.03
2023-05-11T17:40:36.782Z,101611.75
2023-05-11T17:43:03.262Z,101606.56
2023-05-11T17:45:30.022Z,101606.56
2023-05-11T17:47:56.652Z,101595.41
2023-05-11T17:50:23.533Z,101609.84
2023-05-11T17:52:51.163Z,101607.94
2023-05-11T17:55:18.662Z,101604.41
2023-05-11T17:57:45.407Z,101612.00
2023-05-11T18:00:12.602Z,101605.22
2023-05-11T18:02:39.295Z,101616.13
2023-05-11T18:05:07.069Z,101618.03
2023-05-11T18:07:33.828Z,101614.22
2023-05-11T18:10:00.422Z,101619.66
2023-05-11T18:12:27.113Z,101619.66
2023-05-11T18:14:53.685Z,101626.22
2023-05-11T18:17:20.196Z,101628.94
2023-05-11T18:19:46.744Z,101628.94
2023-05-11T18:22:13.283Z,101634.38
2023-05-11T18:24:39.873Z,101639.03
2023-05-11T18:27:06.375Z,101639.84
2023-05-11T18:29:32.942Z,101638.22
2023-05-11T18:31:59.617Z,101633.56
2023-05-11T18:34:26.441Z,101633.81
2023-05-11T18:36:52.982Z,101636.56
2023-05-11T18:39:19.596Z,101632.75
2023-05-11T18:41:46.171Z,101636.56
2023-05-11T18:44:15.171Z,101634.94
2023-05-11T18:46:42.061Z,101639.56
2023-05-11T18:49:09.018Z,101649.38
2023-05-11T18:51:35.548Z,101645.00
2023-05-11T18:54:02.435Z,101641.47
2023-05-11T18:56:29.800Z,101642.28
2023-05-11T18:58:56.353Z,101649.38
2023-05-11T19:01:30.259Z,101645.00
2023-05-11T19:04:03.037Z,101652.38
2023-05-11T19:06:29.555Z,101651.56
2023-05-11T19:08:56.045Z,101652.38
2023-05-11T19:11:22.880Z,101661.38
2023-05-11T19:13:50.483Z,101659.19
2023-05-11T19:16:17.073Z,101656.19
2023-05-11T19:18:43.722Z,101660.00
2023-05-11T19:21:10.734Z,101668.75
2023-05-11T19:23:37.344Z,101662.47
2023-05-11T19:26:03.954Z,101663.00
2023-05-11T19:28:30.542Z,101670.91
2023-05-11T19:31:05.349Z,101685.63
2023-05-11T19:33:32.992Z,101675.28
2023-05-11T19:35:59.693Z,101679.06
2023-05-11T19:38:26.553Z,101676.63
2023-05-11T19:40:53.518Z,101671.19
2023-05-11T19:43:20.515Z,101677.72
2023-05-11T19:45:47.098Z,101681.00
2023-05-11T19:48:14.111Z,101681.28
2023-05-11T19:50:41.118Z,101686.16
2023-05-11T19:53:07.760Z,101688.88
2023-05-11T19:55:34.329Z,101696.81
2023-05-11T19:58:01.177Z,101688.88
2023-05-11T20:00:27.839Z,101691.88
2023-05-11T20:02:55.270Z,101688.34
2023-05-11T20:05:21.946Z,101689.16
2023-05-11T20:07:48.658Z,101694.63
2023-05-11T20:10:15.389Z,101700.88
2023-05-11T20:12:41.864Z,101701.97
2023-05-11T20:15:09.871Z,101698.44
2023-05-11T20:17:36.863Z,101703.03
2023-05-11T20:20:03.796Z,101701.16
2023-05-11T20:22:31.362Z,101702.22
2023-05-11T20:24:57.951Z,101705.22
2023-05-11T20:27:24.518Z,101713.41
2023-05-11T20:29:51.010Z,101709.88
2023-05-11T20:32:18.464Z,101716.13
2023-05-11T20:34:45.319Z,101711.50
2023-05-11T20:37:12.441Z,101712.59
2023-05-11T20:39:38.963Z,101709.88
2023-05-11T20:42:05.620Z,101707.13
2023-05-11T20:44:32.150Z,101716.66
2023-05-11T20:46:58.683Z,101713.69
2023-05-11T20:49:37.738Z,101716.66
2023-05-11T20:52:05.830Z,101715.84
2023-05-11T20:54:34.670Z,101707.66
2023-05-11T20:57:02.025Z,101714.75
2023-05-11T21:02:00.386Z,101715.03
2023-05-11T21:04:27.748Z,101713.41
2023-05-11T21:06:54.881Z,101712.56
2023-05-11T21:09:21.421Z,101718.00
2023-05-11T21:11:48.979Z,101720.47
2023-05-11T21:14:15.620Z,101714.47
2023-05-11T21:16:42.337Z,101734.63
2023-05-11T21:19:09.076Z,101720.72
2023-05-11T21:21:35.922Z,101721.81
2023-05-11T21:24:02.526Z,101723.72
2023-05-11T21:26:29.079Z,101716.38
2023-05-11T21:28:57.403Z,101723.19
2023-05-11T21:31:23.913Z,101725.63
2023-05-11T21:33:51.835Z,101729.19
2023-05-11T21:36:18.571Z,101726.97
2023-05-11T21:38:45.166Z,101733.00
2023-05-11T21:41:11.765Z,101732.19
2023-05-11T21:43:38.484Z,101731.63
2023-05-11T21:46:05.298Z,101725.34
2023-05-11T21:48:31.966Z,101725.63
2023-05-11T21:50:58.446Z,101736.25
2023-05-11T21:53:25.009Z,101738.97
2023-05-11T21:55:51.535Z,101730.00
2023-05-11T21:58:18.318Z,101737.34
2023-05-11T22:00:45.311Z,101729.16
2023-05-11T22:03:11.936Z,101727.50
2023-05-11T22:05:38.591Z,101737.59
2023-05-11T22:08:14.202Z,101735.69
2023-05-11T22:10:43.087Z,101732.16
2023-05-11T22:13:09.815Z,101732.16
2023-05-11T22:15:36.401Z,101736.53
2023-05-11T22:18:03.570Z,101732.16
2023-05-11T22:20:31.693Z,101735.16
2023-05-11T22:22:59.196Z,101737.88
2023-05-11T22:25:26.139Z,101742.50
2023-05-11T22:27:52.949Z,101734.56
2023-05-11T22:30:20.166Z,101738.13
2023-05-11T22:32:47.380Z,101742.50
2023-05-11T22:35:14.006Z,101740.84
2023-05-11T22:37:40.564Z,101740.84
2023-05-11T22:40:07.646Z,101738.41
2023-05-11T22:42:34.862Z,101740.31
2023-05-11T22:45:01.392Z,101738.41
2023-05-11T22:47:28.140Z,101745.75
2023-05-11T22:49:54.835Z,101751.22
2023-05-11T22:52:21.352Z,101741.94
2023-05-11T22:54:47.947Z,101744.66
2023-05-11T22:57:17.078Z,101745.19
2023-05-11T22:59:43.926Z,101748.75
2023-05-11T23:02:10.447Z,101744.38
2023-05-11T23:04:37.020Z,101747.66
2023-05-11T23:07:05.392Z,101743.31
2023-05-11T23:09:31.949Z,101741.66
2023-05-11T23:11:58.975Z,101738.38
2023-05-11T23:14:25.605Z,101746.28
2023-05-11T23:16:52.249Z,101746.28
2023-05-11T23:19:18.791Z,101742.72
2023-05-11T23:21:45.483Z,101743.81
2023-05-11T23:24:12.192Z,101746.75
2023-05-11T23:26:38.755Z,101744.84
2023-05-11T23:29:05.391Z,101748.44
2023-05-11T23:31:32.744Z,101740.25
2023-05-11T23:33:59.627Z,101750.31
2023-05-11T23:36:26.256Z,101744.03
2023-05-11T23:38:53.588Z,101748.44
2023-05-11T23:41:20.150Z,101748.69
2023-05-11T23:43:46.694Z,101751.69
2023-05-11T23:46:13.295Z,101745.13
2023-05-11T23:48:40.376Z,101745.13
2023-05-11T23:51:07.114Z,101748.13
2023-05-11T23:53:33.679Z,101748.13
2023-05-11T23:56:00.181Z,101753.59
2023-05-11T23:58:26.705Z,101755.47
